createdAt,value
2018-01-29T00:00:33.270Z,0
2018-01-29T00:01:33.290Z,0
2018-01-29T00:02:33.324Z,0
2018-01-29T00:03:33.076Z,0
2018-01-29T00:04:33.597Z,0
2018-01-29T00:05:33.367Z,0
2018-01-29T00:06:33.665Z,0
2018-01-29T00:07:33.643Z,0
2018-01-29T00:08:33.661Z,0
2018-01-29T00:09:32.940Z,0
2018-01-29T00:10:33.440Z,0
2018-01-29T00:11:33.459Z,0
2018-01-29T00:12:33.220Z,0
2018-01-29T00:13:33.741Z,0
2018-01-29T00:14:33.760Z,0
2018-01-29T00:15:33.531Z,0
2018-01-29T00:16:33.539Z,0
2018-01-29T00:17:33.311Z,0
2018-01-29T00:18:33.570Z,0
2018-01-29T00:19:33.591Z,0
2018-01-29T00:20:33.360Z,0
2018-01-29T00:21:33.618Z,0
2018-01-29T00:22:33.640Z,0
2018-01-29T00:23:33.662Z,0
2018-01-29T00:24:33.677Z,0
2018-01-29T00:25:33.700Z,0
2018-01-29T00:26:33.962Z,0
2018-01-29T00:27:33.731Z,0
2018-01-29T00:28:33.746Z,0
2018-01-29T00:29:33.760Z,0
2018-01-29T00:30:33.783Z,0
2018-01-29T00:31:33.793Z,0
2018-01-29T00:32:33.833Z,0
2018-01-29T00:33:34.078Z,0
2018-01-29T00:34:33.842Z,0
2018-01-29T00:35:34.111Z,0
2018-01-29T00:36:34.127Z,0
2018-01-29T00:37:33.652Z,0
2018-01-29T00:38:33.913Z,0
2018-01-29T00:39:34.178Z,0
2018-01-29T00:40:33.699Z,0
2018-01-29T00:41:33.962Z,0
2018-01-29T00:42:33.972Z,0
2018-01-29T00:43:34.010Z,0
2018-01-29T00:44:34.276Z,0
2018-01-29T00:45:34.023Z,0
2018-01-29T00:46:33.792Z,0
2018-01-29T00:47:33.824Z,0
2018-01-29T00:48:34.330Z,0
2018-01-29T00:49:34.341Z,0
2018-01-29T00:50:34.097Z,0
2018-01-29T00:51:33.864Z,0
2018-01-29T00:52:33.877Z,0
2018-01-29T00:53:34.146Z,0
2018-01-29T00:54:33.913Z,0
2018-01-29T00:55:34.184Z,0
2018-01-29T00:56:33.948Z,0
2018-01-29T00:57:34.463Z,0
2018-01-29T00:58:33.727Z,0
2018-01-29T00:59:34.512Z,0
2018-01-29T01:00:34.017Z,0
2018-01-29T01:01:34.031Z,0
2018-01-29T01:02:34.052Z,0
2018-01-29T01:03:34.582Z,0
2018-01-29T01:04:34.333Z,0
2018-01-29T01:05:34.604Z,0
2018-01-29T01:06:34.369Z,0
2018-01-29T01:07:33.884Z,0
2018-01-29T01:08:34.399Z,0
2018-01-29T01:09:34.177Z,0
2018-01-29T01:10:34.684Z,0
2018-01-29T01:11:34.459Z,0
2018-01-29T01:12:34.724Z,0
2018-01-29T01:13:34.500Z,0
2018-01-29T01:14:34.755Z,0
2018-01-29T01:15:34.265Z,0
2018-01-29T01:16:34.538Z,0
2018-01-29T01:17:34.810Z,0
2018-01-29T01:18:34.322Z,0
2018-01-29T01:19:34.838Z,0
2018-01-29T01:20:34.354Z,0
2018-01-29T01:21:34.873Z,0
2018-01-29T01:22:34.642Z,0
2018-01-29T01:23:34.654Z,0
2018-01-29T01:24:34.669Z,0
2018-01-29T01:25:34.993Z,0
2018-01-29T01:26:34.961Z,0
2018-01-29T01:27:34.969Z,0
2018-01-29T01:28:34.739Z,0
2018-01-29T01:29:34.776Z,0
2018-01-29T01:30:34.762Z,0
2018-01-29T01:31:34.523Z,0
2018-01-29T01:32:34.544Z,0
2018-01-29T01:33:35.080Z,0
2018-01-29T01:34:34.583Z,0
2018-01-29T01:35:34.862Z,0
2018-01-29T01:36:35.137Z,0
2018-01-29T01:37:34.880Z,0
2018-01-29T01:38:34.903Z,0
2018-01-29T01:39:34.918Z,0
2018-01-29T01:40:34.681Z,0
2018-01-29T01:41:34.713Z,0
2018-01-29T01:42:34.466Z,0
2018-01-29T01:43:35.009Z,0
2018-01-29T01:44:35.250Z,0
2018-01-29T01:45:35.266Z,0
2018-01-29T01:46:35.303Z,0
2018-01-29T01:47:35.050Z,0
2018-01-29T01:48:35.065Z,0
2018-01-29T01:49:34.832Z,0
2018-01-29T01:50:34.597Z,0
2018-01-29T01:51:35.122Z,0
2018-01-29T01:52:34.646Z,0
2018-01-29T01:53:34.955Z,0
2018-01-29T01:54:35.181Z,0
2018-01-29T01:55:35.186Z,0
2018-01-29T01:56:34.703Z,0
2018-01-29T01:57:34.970Z,0
2018-01-29T01:58:35.232Z,0
2018-01-29T01:59:35.249Z,0
2018-01-29T02:00:35.521Z,0
2018-01-29T02:01:35.533Z,0
2018-01-29T02:02:35.309Z,0
2018-01-29T02:03:35.326Z,0
2018-01-29T02:04:35.600Z,0
2018-01-29T02:05:35.362Z,0
2018-01-29T02:06:35.121Z,0
2018-01-29T02:07:35.647Z,0
2018-01-29T02:08:35.423Z,0
2018-01-29T02:09:35.423Z,0
2018-01-29T02:10:35.692Z,0
2018-01-29T02:11:35.204Z,0
2018-01-29T02:12:35.488Z,0
2018-01-29T02:13:35.748Z,0
2018-01-29T02:14:35.508Z,0
2018-01-29T02:15:35.272Z,0
2018-01-29T02:16:35.541Z,0
2018-01-29T02:17:35.813Z,0
2018-01-29T02:18:35.323Z,0
2018-01-29T02:19:35.336Z,0
2018-01-29T02:20:35.858Z,0
2018-01-29T02:21:35.884Z,0
2018-01-29T02:22:35.390Z,0
2018-01-29T02:23:35.404Z,0
2018-01-29T02:24:35.676Z,0
2018-01-29T02:25:35.943Z,0
2018-01-29T02:26:35.765Z,0
2018-01-29T02:27:35.720Z,0
2018-01-29T02:28:35.741Z,0
2018-01-29T02:29:35.501Z,0
2018-01-29T02:30:35.772Z,0
2018-01-29T02:31:35.788Z,0
2018-01-29T02:32:35.549Z,0
2018-01-29T02:33:35.567Z,0
2018-01-29T02:34:35.841Z,0
2018-01-29T02:35:35.857Z,0
2018-01-29T02:36:35.623Z,0
2018-01-29T02:37:35.645Z,0
2018-01-29T02:38:36.153Z,0
2018-01-29T02:39:35.922Z,0
2018-01-29T02:40:36.187Z,0
2018-01-29T02:41:35.957Z,0
2018-01-29T02:42:35.977Z,0
2018-01-29T02:43:35.987Z,0
2018-01-29T02:44:36.328Z,0
2018-01-29T02:45:36.021Z,0
2018-01-29T02:46:36.037Z,0
2018-01-29T02:47:36.323Z,0
2018-01-29T02:48:36.323Z,0
2018-01-29T02:49:36.355Z,0
2018-01-29T02:50:36.358Z,0
2018-01-29T02:51:36.373Z,0
2018-01-29T02:52:36.164Z,0
2018-01-29T02:53:36.411Z,0
2018-01-29T02:54:36.419Z,0
2018-01-29T02:55:36.181Z,0
2018-01-29T02:56:36.461Z,0
2018-01-29T02:57:36.472Z,0
2018-01-29T02:58:36.249Z,0
2018-01-29T02:59:36.244Z,0
2018-01-29T03:00:36.023Z,0
2018-01-29T03:01:36.281Z,0
2018-01-29T03:02:36.557Z,0
2018-01-29T03:03:35.806Z,0
2018-01-29T03:04:35.843Z,0
2018-01-29T03:05:36.088Z,0
2018-01-29T03:06:36.112Z,0
2018-01-29T03:07:36.379Z,0
2018-01-29T03:08:36.648Z,0
2018-01-29T03:09:36.667Z,0
2018-01-29T03:10:36.427Z,0
2018-01-29T03:11:36.202Z,0
2018-01-29T03:12:36.211Z,0
2018-01-29T03:13:36.470Z,0
2018-01-29T03:14:36.739Z,0
2018-01-29T03:15:36.271Z,0
2018-01-29T03:16:36.521Z,0
2018-01-29T03:17:36.537Z,0
2018-01-29T03:18:36.556Z,0
2018-01-29T03:19:36.331Z,0
2018-01-29T03:20:36.584Z,0
2018-01-29T03:21:36.350Z,0
2018-01-29T03:22:36.870Z,0
2018-01-29T03:23:36.883Z,0
2018-01-29T03:24:36.928Z,0
2018-01-29T03:25:36.442Z,0
2018-01-29T03:26:36.696Z,0
2018-01-29T03:27:36.451Z,0
2018-01-29T03:28:37.027Z,0
2018-01-29T03:29:36.732Z,0
2018-01-29T03:30:37.012Z,0
2018-01-29T03:31:36.771Z,0
2018-01-29T03:32:37.031Z,0
2018-01-29T03:33:36.293Z,0
2018-01-29T03:34:36.807Z,0
2018-01-29T03:35:37.096Z,0
2018-01-29T03:36:36.862Z,0
2018-01-29T03:37:36.855Z,0
2018-01-29T03:38:37.131Z,0
2018-01-29T03:39:36.641Z,0
2018-01-29T03:40:36.661Z,0
2018-01-29T03:41:36.933Z,0
2018-01-29T03:42:36.947Z,0
2018-01-29T03:43:37.260Z,0
2018-01-29T03:44:36.726Z,0
2018-01-29T03:45:36.491Z,0
2018-01-29T03:46:37.007Z,0
2018-01-29T03:47:36.770Z,0
2018-01-29T03:48:37.049Z,0
2018-01-29T03:49:37.060Z,0
2018-01-29T03:50:37.081Z,0
2018-01-29T03:51:37.086Z,0
2018-01-29T03:52:37.363Z,0
2018-01-29T03:53:37.119Z,0
2018-01-29T03:54:37.162Z,0
2018-01-29T03:55:37.166Z,0
2018-01-29T03:56:37.414Z,0
2018-01-29T03:57:37.198Z,0
2018-01-29T03:58:36.962Z,0
2018-01-29T03:59:37.467Z,0
2018-01-29T04:00:36.729Z,0
2018-01-29T04:01:36.994Z,0
2018-01-29T04:02:37.264Z,0
2018-01-29T04:03:37.539Z,0
2018-01-29T04:04:37.298Z,0
2018-01-29T04:05:37.306Z,0
2018-01-29T04:06:37.325Z,0
2018-01-29T04:07:37.603Z,0
2018-01-29T04:08:37.370Z,0
2018-01-29T04:09:37.379Z,0
2018-01-29T04:10:37.403Z,0
2018-01-29T04:11:37.665Z,0
2018-01-29T04:12:37.429Z,0
2018-01-29T04:13:37.194Z,0
2018-01-29T04:14:37.460Z,0
2018-01-29T04:15:37.542Z,0
2018-01-29T04:16:37.504Z,0
2018-01-29T04:17:37.778Z,0
2018-01-29T04:18:37.271Z,0
2018-01-29T04:19:37.541Z,0
2018-01-29T04:20:37.815Z,0
2018-01-29T04:21:37.324Z,0
2018-01-29T04:22:37.340Z,0
2018-01-29T04:23:37.356Z,0
2018-01-29T04:24:37.378Z,0
2018-01-29T04:25:37.641Z,0
2018-01-29T04:26:37.408Z,0
2018-01-29T04:27:37.177Z,0
2018-01-29T04:28:37.690Z,0
2018-01-29T04:29:37.448Z,0
2018-01-29T04:30:37.982Z,0
2018-01-29T04:31:37.523Z,0
2018-01-29T04:32:37.505Z,0
2018-01-29T04:33:38.016Z,0
2018-01-29T04:34:38.035Z,0
2018-01-29T04:35:37.551Z,0
2018-01-29T04:36:38.063Z,0
2018-01-29T04:37:38.088Z,0
2018-01-29T04:38:38.100Z,0
2018-01-29T04:39:37.620Z,0
2018-01-29T04:40:38.134Z,0
2018-01-29T04:41:37.654Z,0
2018-01-29T04:42:37.922Z,0
2018-01-29T04:43:37.693Z,0
2018-01-29T04:44:37.694Z,0
2018-01-29T04:45:37.979Z,0
2018-01-29T04:46:37.980Z,0
2018-01-29T04:47:37.751Z,0
2018-01-29T04:48:38.012Z,0
2018-01-29T04:49:38.291Z,0
2018-01-29T04:50:37.544Z,0
2018-01-29T04:51:37.559Z,0
2018-01-29T04:52:38.078Z,0
2018-01-29T04:53:38.351Z,0
2018-01-29T04:54:38.125Z,0
2018-01-29T04:55:38.147Z,0
2018-01-29T04:56:37.896Z,0
2018-01-29T04:57:38.418Z,0
2018-01-29T04:58:38.428Z,0
2018-01-29T04:59:38.208Z,0
2018-01-29T05:00:38.237Z,0
2018-01-29T05:01:38.231Z,0
2018-01-29T05:02:38.248Z,0
2018-01-29T05:03:38.515Z,0
2018-01-29T05:04:38.538Z,0
2018-01-29T05:05:38.314Z,0
2018-01-29T05:06:38.311Z,0
2018-01-29T05:07:38.580Z,0
2018-01-29T05:08:38.598Z,0
2018-01-29T05:09:38.360Z,0
2018-01-29T05:10:38.377Z,0
2018-01-29T05:11:38.397Z,0
2018-01-29T05:12:38.412Z,0
2018-01-29T05:13:38.427Z,0
2018-01-29T05:14:38.186Z,0
2018-01-29T05:15:38.456Z,0
2018-01-29T05:16:38.224Z,0
2018-01-29T05:17:38.501Z,0
2018-01-29T05:18:38.761Z,0
2018-01-29T05:19:38.280Z,0
2018-01-29T05:20:38.547Z,0
2018-01-29T05:21:38.822Z,0
2018-01-29T05:22:38.829Z,0
2018-01-29T05:23:38.347Z,0
2018-01-29T05:24:38.368Z,0
2018-01-29T05:25:38.371Z,0
2018-01-29T05:26:38.646Z,0
2018-01-29T05:27:38.155Z,0
2018-01-29T05:28:38.177Z,0
2018-01-29T05:29:38.443Z,0
2018-01-29T05:30:38.711Z,0
2018-01-29T05:31:38.491Z,0
2018-01-29T05:32:38.497Z,0
2018-01-29T05:33:38.258Z,0
2018-01-29T05:34:38.538Z,0
2018-01-29T05:35:38.794Z,0
2018-01-29T05:36:39.063Z,0
2018-01-29T05:37:38.578Z,0
2018-01-29T05:38:38.868Z,0
2018-01-29T05:39:39.109Z,0
2018-01-29T05:40:39.126Z,0
2018-01-29T05:41:39.154Z,0
2018-01-29T05:42:38.908Z,0
2018-01-29T05:43:38.923Z,0
2018-01-29T05:44:39.191Z,0
2018-01-29T05:45:39.204Z,0
2018-01-29T05:46:38.968Z,0
2018-01-29T05:47:38.992Z,0
2018-01-29T05:48:39.003Z,0
2018-01-29T05:49:39.024Z,0
2018-01-29T05:50:39.291Z,0
2018-01-29T05:51:39.061Z,0
2018-01-29T05:52:38.854Z,0
2018-01-29T05:53:39.089Z,0
2018-01-29T05:54:39.111Z,0
2018-01-29T05:55:39.373Z,0
2018-01-29T05:56:38.894Z,0
2018-01-29T05:57:38.908Z,0
2018-01-29T05:58:39.176Z,0
2018-01-29T05:59:38.936Z,0
2018-01-29T06:00:39.466Z,0
2018-01-29T06:01:38.965Z,0
2018-01-29T06:02:38.982Z,0
2018-01-29T06:03:39.300Z,0
2018-01-29T06:04:39.016Z,0
2018-01-29T06:05:39.284Z,0
2018-01-29T06:06:39.318Z,0
2018-01-29T06:07:39.073Z,0
2018-01-29T06:08:38.828Z,0
2018-01-29T06:09:39.606Z,0
2018-01-29T06:10:38.866Z,0
2018-01-29T06:11:39.129Z,0
2018-01-29T06:12:39.143Z,0
2018-01-29T06:13:39.411Z,4
2018-01-29T06:14:39.426Z,4
2018-01-29T06:15:39.445Z,0
2018-01-29T06:16:39.463Z,4
2018-01-29T06:17:39.728Z,4
2018-01-29T06:18:39.751Z,4
2018-01-29T06:19:39.507Z,4
2018-01-29T06:20:39.796Z,4
2018-01-29T06:21:39.544Z,8
2018-01-29T06:22:39.313Z,8
2018-01-29T06:23:39.577Z,8
2018-01-29T06:24:39.592Z,12
2018-01-29T06:25:39.606Z,16
2018-01-29T06:26:39.622Z,16
2018-01-29T06:27:39.638Z,24
2018-01-29T06:28:39.670Z,24
2018-01-29T06:29:39.672Z,28
2018-01-29T06:30:39.697Z,32
2018-01-29T06:31:39.701Z,40
2018-01-29T06:32:39.736Z,48
2018-01-29T06:33:39.733Z,56
2018-01-29T06:34:39.806Z,60
2018-01-29T06:35:40.023Z,72
2018-01-29T06:36:40.032Z,84
2018-01-29T06:37:40.053Z,92
2018-01-29T06:38:39.588Z,108
2018-01-29T06:39:39.578Z,120
2018-01-29T06:40:39.595Z,132
2018-01-29T06:41:39.621Z,152
2018-01-29T06:42:40.149Z,168
2018-01-29T06:43:39.913Z,188
2018-01-29T06:44:39.917Z,208
2018-01-29T06:45:39.927Z,228
2018-01-29T06:46:39.443Z,244
2018-01-29T06:47:40.213Z,272
2018-01-29T06:48:40.222Z,292
2018-01-29T06:49:39.986Z,312
2018-01-29T06:50:39.756Z,340
2018-01-29T06:51:39.514Z,364
2018-01-29T06:52:40.037Z,392
2018-01-29T06:53:40.050Z,420
2018-01-29T06:54:39.570Z,448
2018-01-29T06:55:40.330Z,480
2018-01-29T06:56:40.099Z,512
2018-01-29T06:57:39.870Z,544
2018-01-29T06:58:40.143Z,576
2018-01-29T06:59:39.895Z,608
2018-01-29T07:00:40.423Z,640
2018-01-29T07:01:40.184Z,668
2018-01-29T07:02:39.942Z,700
2018-01-29T07:03:40.211Z,732
2018-01-29T07:04:40.478Z,764
2018-01-29T07:05:40.251Z,796
2018-01-29T07:06:40.267Z,828
2018-01-29T07:07:40.283Z,860
2018-01-29T07:08:40.039Z,892
2018-01-29T07:09:40.058Z,920
2018-01-29T07:10:40.070Z,952
2018-01-29T07:11:40.086Z,988
2018-01-29T07:12:40.100Z,1016
2018-01-29T07:13:40.379Z,1048
2018-01-29T07:14:40.383Z,1080
2018-01-29T07:15:40.153Z,1112
2018-01-29T07:16:40.434Z,1148
2018-01-29T07:17:40.444Z,1184
2018-01-29T07:18:39.945Z,1220
2018-01-29T07:19:40.215Z,1256
2018-01-29T07:20:40.740Z,1296
2018-01-29T07:21:40.497Z,1332
2018-01-29T07:22:40.767Z,1372
2018-01-29T07:23:40.776Z,1408
2018-01-29T07:24:40.293Z,1444
2018-01-29T07:25:40.306Z,1484
2018-01-29T07:26:40.826Z,1532
2018-01-29T07:27:40.640Z,1572
2018-01-29T07:28:40.615Z,1616
2018-01-29T07:29:40.616Z,1664
2018-01-29T07:30:40.382Z,1716
2018-01-29T07:31:40.149Z,1768
2018-01-29T07:32:40.916Z,1816
2018-01-29T07:33:40.947Z,1876
2018-01-29T07:34:40.449Z,1928
2018-01-29T07:35:40.461Z,1980
2018-01-29T07:36:40.483Z,2028
2018-01-29T07:37:40.494Z,2072
2018-01-29T07:38:40.782Z,2136
2018-01-29T07:39:40.525Z,2200
2018-01-29T07:40:40.540Z,2252
2018-01-29T07:41:40.826Z,2300
2018-01-29T07:42:40.833Z,2360
2018-01-29T07:43:40.851Z,2412
2018-01-29T07:44:40.862Z,2472
2018-01-29T07:45:40.628Z,2524
2018-01-29T07:46:40.894Z,2588
2018-01-29T07:47:40.409Z,2652
2018-01-29T07:48:40.928Z,2696
2018-01-29T07:49:40.963Z,2772
2018-01-29T07:50:40.472Z,2824
2018-01-29T07:51:40.981Z,2880
2018-01-29T07:52:40.993Z,2948
2018-01-29T07:53:41.279Z,2988
2018-01-29T07:54:41.019Z,3048
2018-01-29T07:55:41.042Z,3104
2018-01-29T07:56:41.074Z,3156
2018-01-29T07:57:40.819Z,3204
2018-01-29T07:58:41.083Z,3264
2018-01-29T07:59:41.099Z,3308
2018-01-29T08:00:40.629Z,3380
2018-01-29T08:01:41.386Z,3452
2018-01-29T08:02:41.146Z,3520
2018-01-29T08:03:40.918Z,3556
2018-01-29T08:04:40.675Z,3588
2018-01-29T08:05:41.452Z,3688
2018-01-29T08:06:41.209Z,3724
2018-01-29T08:07:41.227Z,3748
2018-01-29T08:08:41.498Z,3812
2018-01-29T08:09:41.513Z,3892
2018-01-29T08:10:41.023Z,3988
2018-01-29T08:11:41.551Z,4036
2018-01-29T08:12:40.823Z,4020
2018-01-29T08:13:41.319Z,4104
2018-01-29T08:14:41.341Z,4192
2018-01-29T08:15:41.616Z,4264
2018-01-29T08:16:41.371Z,4304
2018-01-29T08:17:41.131Z,4300
2018-01-29T08:18:41.401Z,4416
2018-01-29T08:19:41.671Z,4452
2018-01-29T08:20:41.684Z,4512
2018-01-29T08:21:41.464Z,4468
2018-01-29T08:22:41.205Z,4600
2018-01-29T08:23:41.476Z,4628
2018-01-29T08:24:41.350Z,4656
2018-01-29T08:25:41.513Z,4748
2018-01-29T08:26:41.530Z,4756
2018-01-29T08:27:41.552Z,4852
2018-01-29T08:28:41.056Z,4844
2018-01-29T08:29:41.575Z,4836
2018-01-29T08:30:41.600Z,5028
2018-01-29T08:31:41.607Z,4980
2018-01-29T08:32:41.375Z,5100
2018-01-29T08:33:41.905Z,5056
2018-01-29T08:34:41.423Z,5228
2018-01-29T08:35:41.747Z,5228
2018-01-29T08:36:42.016Z,5152
2018-01-29T08:37:41.714Z,5272
2018-01-29T08:38:41.722Z,5336
2018-01-29T08:39:41.742Z,5108
2018-01-29T08:40:41.777Z,5112
2018-01-29T08:41:41.520Z,5168
2018-01-29T08:42:41.536Z,5640
2018-01-29T08:43:41.806Z,5588
2018-01-29T08:44:41.823Z,5580
2018-01-29T08:45:41.840Z,5644
2018-01-29T08:46:41.603Z,5680
2018-01-29T08:47:41.618Z,5736
2018-01-29T08:48:41.643Z,5752
2018-01-29T08:49:42.159Z,5824
2018-01-29T08:50:42.177Z,5780
2018-01-29T08:51:42.196Z,5860
2018-01-29T08:52:41.704Z,5860
2018-01-29T08:53:41.978Z,5876
2018-01-29T08:54:41.991Z,5944
2018-01-29T08:55:42.320Z,5988
2018-01-29T08:56:41.778Z,5904
2018-01-29T08:57:42.042Z,6016
2018-01-29T08:58:42.057Z,6068
2018-01-29T08:59:42.322Z,6092
2018-01-29T09:00:41.841Z,6072
2018-01-29T09:01:42.356Z,6100
2018-01-29T09:02:42.128Z,6148
2018-01-29T09:03:42.161Z,6160
2018-01-29T09:04:42.151Z,6196
2018-01-29T09:05:41.916Z,6216
2018-01-29T09:06:42.229Z,6260
2018-01-29T09:07:42.448Z,6308
2018-01-29T09:08:41.711Z,6272
2018-01-29T09:09:42.251Z,6328
2018-01-29T09:10:42.254Z,6328
2018-01-29T09:11:41.760Z,6364
2018-01-29T09:12:42.536Z,6448
2018-01-29T09:13:42.302Z,6388
2018-01-29T09:14:42.063Z,6460
2018-01-29T09:15:42.337Z,6468
2018-01-29T09:16:42.356Z,6488
2018-01-29T09:17:42.624Z,6544
2018-01-29T09:18:42.393Z,6536
2018-01-29T09:19:42.663Z,6596
2018-01-29T09:20:42.424Z,6608
2018-01-29T09:21:42.188Z,6640
2018-01-29T09:22:42.205Z,6636
2018-01-29T09:23:42.220Z,6648
2018-01-29T09:24:42.239Z,6656
2018-01-29T09:25:42.773Z,6692
2018-01-29T09:26:42.292Z,6712
2018-01-29T09:27:42.043Z,6712
2018-01-29T09:28:42.311Z,6732
2018-01-29T09:29:42.333Z,6780
2018-01-29T09:30:42.855Z,6780
2018-01-29T09:31:42.668Z,6792
2018-01-29T09:32:42.388Z,6836
2018-01-29T09:33:42.410Z,6844
2018-01-29T09:34:42.417Z,6884
2018-01-29T09:35:42.434Z,6900
2018-01-29T09:36:42.703Z,6900
2018-01-29T09:37:42.724Z,6912
2018-01-29T09:38:42.737Z,6940
2018-01-29T09:39:42.504Z,6952
2018-01-29T09:40:42.521Z,6988
2018-01-29T09:41:42.540Z,6996
2018-01-29T09:42:42.821Z,6984
2018-01-29T09:43:42.576Z,7060
2018-01-29T09:44:42.847Z,7064
2018-01-29T09:45:43.119Z,7044
2018-01-29T09:46:42.884Z,7100
2018-01-29T09:47:43.224Z,7104
2018-01-29T09:48:42.985Z,7108
2018-01-29T09:49:42.938Z,7160
2018-01-29T09:50:43.207Z,7128
2018-01-29T09:51:42.735Z,7188
2018-01-29T09:52:42.485Z,7168
2018-01-29T09:53:43.265Z,7228
2018-01-29T09:54:43.048Z,7220
2018-01-29T09:55:43.051Z,7264
2018-01-29T09:56:43.064Z,7260
2018-01-29T09:57:43.083Z,7260
2018-01-29T09:58:43.170Z,7272
2018-01-29T09:59:43.125Z,7264
2018-01-29T10:00:43.392Z,7336
2018-01-29T10:01:42.906Z,7272
2018-01-29T10:02:42.923Z,7352
2018-01-29T10:03:42.941Z,7332
2018-01-29T10:04:42.970Z,7400
2018-01-29T10:05:43.223Z,7376
2018-01-29T10:06:43.239Z,7356
2018-01-29T10:07:42.750Z,7408
2018-01-29T10:08:43.022Z,7408
2018-01-29T10:09:43.295Z,7384
2018-01-29T10:10:43.062Z,7416
2018-01-29T10:11:43.339Z,7548
2018-01-29T10:12:43.599Z,18592
2018-01-29T10:13:43.182Z,36256
2018-01-29T10:14:42.886Z,39072
2018-01-29T10:15:43.151Z,39648
2018-01-29T10:16:42.920Z,38848
2018-01-29T10:17:43.196Z,38624
2018-01-29T10:18:42.953Z,39680
2018-01-29T10:19:43.238Z,38112
2018-01-29T10:20:43.503Z,39104
2018-01-29T10:21:43.275Z,40480
2018-01-29T10:22:43.311Z,40864
2018-01-29T10:23:43.573Z,40864
2018-01-29T10:24:43.343Z,40384
2018-01-29T10:25:43.611Z,39872
2018-01-29T10:26:43.635Z,40896
2018-01-29T10:27:43.915Z,40640
2018-01-29T10:28:43.431Z,38272
2018-01-29T10:29:43.472Z,36064
2018-01-29T10:30:43.732Z,33920
2018-01-29T10:31:43.247Z,36960
2018-01-29T10:32:43.530Z,42304
2018-01-29T10:33:43.808Z,40032
2018-01-29T10:34:43.598Z,38400
2018-01-29T10:35:43.598Z,41024
2018-01-29T10:36:43.645Z,43040
2018-01-29T10:37:43.908Z,44512
2018-01-29T10:38:43.927Z,41952
2018-01-29T10:39:43.448Z,41152
2018-01-29T10:40:43.727Z,38592
2018-01-29T10:41:44.013Z,41312
2018-01-29T10:42:44.031Z,43040
2018-01-29T10:43:43.804Z,39680
2018-01-29T10:44:44.083Z,34880
2018-01-29T10:45:44.384Z,34080
2018-01-29T10:46:44.134Z,37920
2018-01-29T10:47:44.406Z,41152
2018-01-29T10:48:44.440Z,45152
2018-01-29T10:49:44.073Z,44960
2018-01-29T10:50:44.272Z,44384
2018-01-29T10:51:44.266Z,43776
2018-01-29T10:52:44.294Z,42240
2018-01-29T10:53:44.324Z,42880
2018-01-29T10:54:44.351Z,46624
2018-01-29T10:55:44.387Z,48608
2018-01-29T10:56:44.155Z,50624
2018-01-29T10:57:44.454Z,52928
2018-01-29T10:58:44.740Z,52736
2018-01-29T10:59:44.240Z,52384
2018-01-29T11:00:44.313Z,48832
2018-01-29T11:01:44.798Z,47872
2018-01-29T11:02:44.315Z,51680
2018-01-29T11:03:44.591Z,54560
2018-01-29T11:04:44.648Z,52576
2018-01-29T11:05:44.665Z,52512
2018-01-29T11:06:44.681Z,53696
2018-01-29T11:07:44.714Z,52544
2018-01-29T11:08:44.747Z,48896
2018-01-29T11:09:44.807Z,48064
2018-01-29T11:10:44.564Z,49472
2018-01-29T11:11:44.581Z,49248
2018-01-29T11:12:44.608Z,44928
2018-01-29T11:13:44.896Z,39872
2018-01-29T11:14:44.667Z,36320
2018-01-29T11:15:44.692Z,33984
2018-01-29T11:16:44.727Z,33984
2018-01-29T11:17:44.751Z,33600
2018-01-29T11:18:44.781Z,32384
2018-01-29T11:19:45.311Z,31040
2018-01-29T11:20:45.167Z,31296
2018-01-29T11:21:44.869Z,32416
2018-01-29T11:22:45.151Z,32000
2018-01-29T11:23:45.185Z,32864
2018-01-29T11:24:44.952Z,36032
2018-01-29T11:25:45.229Z,36704
2018-01-29T11:26:45.016Z,37184
2018-01-29T11:27:45.310Z,37792
2018-01-29T11:28:45.075Z,40352
2018-01-29T11:29:45.355Z,43264
2018-01-29T11:30:44.882Z,46912
2018-01-29T11:31:45.420Z,50560
2018-01-29T11:32:44.938Z,51712
2018-01-29T11:33:45.729Z,49600
2018-01-29T11:34:45.503Z,47328
2018-01-29T11:35:45.030Z,45344
2018-01-29T11:36:45.585Z,45280
2018-01-29T11:37:45.846Z,47072
2018-01-29T11:38:45.368Z,47456
2018-01-29T11:39:45.382Z,49632
2018-01-29T11:40:45.429Z,53760
2018-01-29T11:41:45.717Z,56576
2018-01-29T11:42:45.241Z,59232
2018-01-29T11:43:45.522Z,64864
2018-01-29T11:44:46.054Z,68064
2018-01-29T11:45:45.830Z,67360
2018-01-29T11:46:45.867Z,68416
2018-01-29T11:47:45.910Z,68448
2018-01-29T11:48:46.172Z,64480
2018-01-29T11:49:45.950Z,61184
2018-01-29T11:50:45.737Z,63040
2018-01-29T11:51:46.013Z,65248
2018-01-29T11:52:46.047Z,66016
2018-01-29T11:53:45.826Z,68288
2018-01-29T11:54:45.860Z,71808
2018-01-29T11:55:46.388Z,70048
2018-01-29T11:56:45.922Z,62528
2018-01-29T11:57:46.203Z,55872
2018-01-29T11:58:46.030Z,57984
2018-01-29T11:59:46.523Z,64000
2018-01-29T12:00:46.593Z,67136
2018-01-29T12:01:46.334Z,68320
2018-01-29T12:02:46.359Z,71936
2018-01-29T12:03:46.651Z,74880
2018-01-29T12:04:46.424Z,75296
2018-01-29T12:05:46.464Z,75776
2018-01-29T12:06:46.502Z,76576
2018-01-29T12:07:46.531Z,78016
2018-01-29T12:08:46.803Z,75648
2018-01-29T12:09:46.333Z,70080
2018-01-29T12:10:46.867Z,65504
2018-01-29T12:11:46.672Z,61920
2018-01-29T12:12:46.941Z,59488
2018-01-29T12:13:46.472Z,55712
2018-01-29T12:14:46.752Z,56096
2018-01-29T12:15:47.039Z,57888
2018-01-29T12:16:47.067Z,56352
2018-01-29T12:17:46.843Z,57184
2018-01-29T12:18:46.622Z,58208
2018-01-29T12:19:46.907Z,58752
2018-01-29T12:20:46.695Z,59200
2018-01-29T12:21:46.727Z,57952
2018-01-29T12:22:46.759Z,60608
2018-01-29T12:23:47.048Z,63936
2018-01-29T12:24:47.091Z,67680
2018-01-29T12:25:47.110Z,66432
2018-01-29T12:26:47.403Z,63840
2018-01-29T12:27:47.178Z,62496
2018-01-29T12:28:46.960Z,62336
2018-01-29T12:29:46.991Z,63392
2018-01-29T12:30:47.525Z,66592
2018-01-29T12:31:47.302Z,69824
2018-01-29T12:32:47.112Z,73600
2018-01-29T12:33:47.634Z,70208
2018-01-29T12:34:47.419Z,65056
2018-01-29T12:35:48.897Z,62528
2018-01-29T12:36:46.977Z,64000
2018-01-29T12:37:47.514Z,65472
2018-01-29T12:38:47.300Z,65696
2018-01-29T12:39:47.844Z,63168
2018-01-29T12:40:47.863Z,61344
2018-01-29T12:41:47.650Z,63680
2018-01-29T12:42:47.684Z,63424
2018-01-29T12:43:47.730Z,64736
2018-01-29T12:44:47.252Z,66976
2018-01-29T12:45:47.295Z,66016
2018-01-29T12:46:47.814Z,64512
2018-01-29T12:47:47.854Z,65728
2018-01-29T12:48:47.652Z,67296
2018-01-29T12:49:47.669Z,69056
2018-01-29T12:50:47.445Z,70464
2018-01-29T12:51:47.732Z,70272
2018-01-29T12:52:47.763Z,71456
2018-01-29T12:53:47.562Z,73056
2018-01-29T12:54:48.083Z,74144
2018-01-29T12:55:47.861Z,78592
2018-01-29T12:56:48.410Z,84544
2018-01-29T12:57:48.184Z,86048
2018-01-29T12:58:48.470Z,86304
2018-01-29T12:59:48.256Z,87776
2018-01-29T13:00:48.287Z,87456
2018-01-29T13:01:48.339Z,88192
2018-01-29T13:02:48.349Z,88000
2018-01-29T13:03:48.140Z,87104
2018-01-29T13:04:48.439Z,85632
2018-01-29T13:05:48.208Z,87296
2018-01-29T13:06:48.236Z,93344
2018-01-29T13:07:48.271Z,96672
2018-01-29T13:08:48.305Z,91456
2018-01-29T13:09:48.841Z,82656
2018-01-29T13:10:48.878Z,84288
2018-01-29T13:11:48.410Z,78912
2018-01-29T13:12:48.206Z,79552
2018-01-29T13:13:48.729Z,80000
2018-01-29T13:14:48.750Z,75104
2018-01-29T13:15:49.048Z,71008
2018-01-29T13:16:49.106Z,75072
2018-01-29T13:17:48.859Z,82624
2018-01-29T13:18:49.160Z,84288
2018-01-29T13:19:48.926Z,86368
2018-01-29T13:20:48.694Z,89920
2018-01-29T13:21:49.230Z,84544
2018-01-29T13:22:48.774Z,77376
2018-01-29T13:23:49.062Z,75776
2018-01-29T13:24:49.345Z,75712
2018-01-29T13:25:49.379Z,74752
2018-01-29T13:26:48.970Z,71616
2018-01-29T13:27:49.450Z,70304
2018-01-29T13:28:48.988Z,67712
2018-01-29T13:29:49.276Z,68288
2018-01-29T13:30:49.549Z,71744
2018-01-29T13:31:49.312Z,73120
2018-01-29T13:32:48.845Z,75488
2018-01-29T13:33:48.875Z,79968
2018-01-29T13:34:48.910Z,86432
2018-01-29T13:35:49.712Z,82368
2018-01-29T13:36:49.491Z,73280
2018-01-29T13:37:49.262Z,66976
2018-01-29T13:38:49.548Z,55552
2018-01-29T13:39:49.854Z,48288
2018-01-29T13:40:49.606Z,61472
2018-01-29T13:41:49.414Z,69376
2018-01-29T13:42:49.436Z,67904
2018-01-29T13:43:49.729Z,71456
2018-01-29T13:44:49.493Z,68928
2018-01-29T13:45:49.775Z,67424
2018-01-29T13:46:49.841Z,72672
2018-01-29T13:47:49.909Z,69696
2018-01-29T13:48:49.643Z,70368
2018-01-29T13:49:49.983Z,77792
2018-01-29T13:50:50.207Z,80704
2018-01-29T13:51:49.486Z,86432